Terminal Aerodrome Forecast
Issued by NWS Knoxville/Tri Cities, TN

Home | Current Version | Previous Version | Text Only | Print | Product List | Glossary On
Versions: 1 2 3 4 5 6 7 8 9 10 11 12
000
FTUS44 KMRX 061735
TAFTRI
TAF
KTRI 061735Z 0618/0718 33008G15KT P6SM VCSH BKN070
     FM070000 27005KT P6SM SCT050
     FM071400 25012G20KT P6SM SCT060=

USA.gov is the U.S. government's official web portal to all federal, state and local government web resources and services.